Terminal Aerodrome Forecast
Issued by NWS

Home | Current Version | Previous Version | Text Only | Print | Product List | Glossary On
Versions: 1 2 3 4 5 6 7 8 9 10 11 12 13 14 15 16 17 18
000
FTUS41 KBTV 281130
TAFMPV
TAF
KMPV 281130Z 2812/2912 00000KT 1/4SM FG VV001
      TEMPO 2812/2813 6SM BR BKN008
     FM281400 00000KT P6SM FEW100
     FM281700 33006KT P6SM SCT080
     FM290000 00000KT P6SM SCT080
     FM290700 VRB03KT 1/4SM FG OVC002=

USA.gov is the U.S. government's official web portal to all federal, state and local government web resources and services.